Andale, Kansas
Current Conditions -  °F | °C
As of 9:53 PM on Wednesday 22 Oct 2014 (Local Time) from KICT Reporting Station
Overcast Overcast  
Wind Chill: 64°   Ceiling: 7000
Heat Index: 64°   Visibility: 10mi
Dew Point: 59°   Wind: 6mph
Humidity: 84%   Direction: 230°SW
Pressure: 30.09"   Gusts: NA
Location:  37.79°N, 97.63°W
Report Text: KICT 230253Z 23005KT 10SM SCT045 BKN070 OVC110 18/15 A3009 RMK AO2 RAB41E50 SLP181 SHRA VC NE-SE P0000 60000 T01780150 53013
Loading
Personal Weather Stations






























Interactive Weather Map New forecast layout! Learn more

10-Day Weather Forecast

Advertisements
Track Severe Weather on mobile